Time;durP1;ratioP1;P1;durP2;ratioP2;P2;SDS_P1;SDS_P2;PMS_P1;PMS_P2;Temp;Humidity;BMP_temperature;BMP_pressure;BME280_temperature;BME280_humidity;BME280_pressure;Samples;Min_cycle;Max_cycle;Signal;HPM_P1;HPM_P2
2024/01/17 00:00:13;;;;;;;2.58;0.63;;;;;;;3.08;70.80;100086.03;5068782;28;20071;-68
2024/01/17 00:02:39;;;;;;;1.17;0.50;;;;;;;3.10;70.04;100088.50;5068384;28;20028;-68
2024/01/17 00:05:05;;;;;;;2.42;0.73;;;;;;;3.15;69.82;100091.59;5067796;28;20032;-69
2024/01/17 00:07:30;;;;;;;3.63;0.77;;;;;;;3.21;69.63;100091.16;5066140;28;20033;-68
2024/01/17 00:09:56;;;;;;;2.80;0.50;;;;;;;3.26;70.07;100089.09;5069531;28;20038;-68
2024/01/17 00:12:21;;;;;;;2.75;1.38;;;;;;;3.24;71.07;100090.97;5067684;28;20020;-68
2024/01/17 00:14:46;;;;;;;5.88;2.17;;;;;;;3.14;72.24;100085.63;5067751;28;20077;-68
2024/01/17 00:17:12;;;;;;;5.90;1.98;;;;;;;3.12;71.85;100084.09;5066224;28;20173;-68
2024/01/17 00:19:37;;;;;;;3.97;1.58;;;;;;;3.17;70.70;100080.25;5068800;28;20103;-68
2024/01/17 00:22:03;;;;;;;3.78;0.95;;;;;;;3.21;70.45;100065.44;5065977;28;20028;-68
2024/01/17 00:24:29;;;;;;;4.53;1.30;;;;;;;3.16;71.20;100064.91;5069229;28;20097;-68
2024/01/17 00:26:54;;;;;;;6.80;1.60;;;;;;;3.13;72.39;100054.84;5066111;28;20036;-68
2024/01/17 00:29:19;;;;;;;2.80;0.85;;;;;;;3.15;71.17;100052.97;5067346;28;20028;-68
2024/01/17 00:31:45;;;;;;;3.60;0.90;;;;;;;3.19;70.31;100050.09;5064530;28;20505;-68
2024/01/17 00:34:10;;;;;;;4.05;0.73;;;;;;;3.19;70.10;100031.25;5068536;28;20394;-68
2024/01/17 00:36:36;;;;;;;2.95;0.65;;;;;;;3.21;69.78;100019.09;5065455;28;20146;-68
2024/01/17 00:39:01;;;;;;;2.75;0.85;;;;;;;3.23;70.14;100017.22;5062712;28;20116;-68
2024/01/17 00:41:26;;;;;;;3.95;0.77;;;;;;;3.24;70.06;100008.56;5065119;28;20028;-68
2024/01/17 00:43:52;;;;;;;4.05;0.85;;;;;;;3.27;69.64;100003.19;5069322;28;20034;-68
2024/01/17 00:46:17;;;;;;;2.05;0.52;;;;;;;3.25;69.82;100003.31;5060517;28;20040;-68
2024/01/17 00:48:43;;;;;;;2.42;0.80;;;;;;;3.28;68.89;100013.41;5073435;28;20574;-69
2024/01/17 00:51:09;;;;;;;1.52;0.70;;;;;;;3.25;70.35;100016.19;5070702;28;20024;-68
2024/01/17 00:53:34;;;;;;;2.75;0.80;;;;;;;3.22;69.82;100013.81;5069637;28;20556;-68
2024/01/17 00:56:00;;;;;;;2.17;0.60;;;;;;;3.22;70.32;100011.25;5072221;28;20020;-68
2024/01/17 00:58:25;;;;;;;5.25;0.35;;;;;;;3.22;69.99;100008.69;5073056;28;20024;-68
2024/01/17 01:00:50;;;;;;;1.05;0.40;;;;;;;3.20;69.76;100015.69;5075867;28;20074;-68
2024/01/17 01:03:16;;;;;;;1.88;0.45;;;;;;;3.21;70.52;100022.47;5072616;28;20040;-68
2024/01/17 01:05:41;;;;;;;2.22;0.65;;;;;;;3.18;70.00;100014.16;5070613;28;20116;-68
2024/01/17 01:08:07;;;;;;;2.13;0.57;;;;;;;3.14;70.37;100018.69;5069818;28;20049;-69
2024/01/17 01:10:32;;;;;;;4.38;0.50;;;;;;;3.08;71.52;100018.28;5068814;28;20444;-68
2024/01/17 01:12:58;;;;;;;5.50;0.57;;;;;;;3.07;71.05;100027.78;5082887;28;20029;-69
2024/01/17 01:15:23;;;;;;;2.95;0.50;;;;;;;3.10;71.32;100022.41;5070429;28;20032;-68
2024/01/17 01:17:49;;;;;;;1.38;0.52;;;;;;;3.13;71.37;100022.19;5074124;28;20027;-68
2024/01/17 01:20:15;;;;;;;3.03;0.60;;;;;;;3.13;70.83;100019.63;5066247;28;20036;-68
2024/01/17 01:22:41;;;;;;;4.22;0.60;;;;;;;3.12;71.73;100012.00;5069536;28;20071;-68
2024/01/17 01:25:06;;;;;;;2.45;0.88;;;;;;;3.12;71.02;100012.00;5076356;28;20506;-68
2024/01/17 01:27:32;;;;;;;1.80;0.47;;;;;;;3.15;70.60;100004.06;5069802;28;20114;-69
2024/01/17 01:29:58;;;;;;;3.22;0.50;;;;;;;3.16;70.84;100001.38;5073271;28;20036;-69
2024/01/17 01:32:23;;;;;;;1.70;0.40;;;;;;;3.16;69.92;99998.81;5068884;28;20033;-68
2024/01/17 01:34:49;;;;;;;1.98;0.70;;;;;;;3.18;70.50;99994.38;5065597;28;20447;-68
2024/01/17 01:37:14;;;;;;;3.55;0.80;;;;;;;3.19;70.61;99988.31;5068966;28;20488;-68
2024/01/17 01:39:40;;;;;;;2.40;0.65;;;;;;;3.17;70.36;99987.59;5071595;28;20393;-68
2024/01/17 01:42:05;;;;;;;2.40;0.40;;;;;;;3.21;70.37;99988.19;5073124;28;20032;-68
2024/01/17 01:44:30;;;;;;;2.40;0.50;;;;;;;3.16;70.92;99995.41;5074140;28;20039;-68
2024/01/17 01:46:57;;;;;;;2.85;0.50;;;;;;;3.15;71.75;99989.44;5064188;28;20033;-68
2024/01/17 01:49:24;;;;;;;2.67;0.60;;;;;;;3.20;71.86;99996.84;5074237;28;20036;-68
2024/01/17 01:51:50;;;;;;;0.77;0.30;;;;;;;3.25;72.44;99995.59;5067296;28;20051;-68
2024/01/17 01:54:20;;;;;;;1.75;0.40;;;;;;;3.26;73.36;100010.09;5063719;28;20193;-68
2024/01/17 01:56:46;;;;;;;1.27;0.30;;;;;;;3.27;74.19;100005.78;5060339;28;20037;-68
2024/01/17 01:59:13;;;;;;;1.52;0.50;;;;;;;3.25;74.20;100003.31;5071027;28;20031;-68
2024/01/17 02:01:40;;;;;;;2.75;0.88;;;;;;;3.21;74.07;100003.63;5070198;28;20055;-68
2024/01/17 02:04:05;;;;;;;1.75;0.68;;;;;;;3.15;74.80;99994.59;5069825;28;20028;-68
2024/01/17 02:06:34;;;;;;;1.35;0.55;;;;;;;3.06;74.56;99999.56;5073067;28;20036;-68
2024/01/17 02:09:00;;;;;;;1.92;0.60;;;;;;;3.04;74.55;99998.84;5070998;28;20484;-68
2024/01/17 02:11:29;;;;;;;2.83;0.77;;;;;;;3.04;74.72;99996.28;5071229;28;20063;-68
2024/01/17 02:13:54;;;;;;;3.55;0.43;;;;;;;3.05;74.59;99990.19;5075668;28;20051;-68
2024/01/17 02:16:20;;;;;;;3.75;0.60;;;;;;;3.02;74.65;99983.50;5069251;28;20374;-69
2024/01/17 02:18:47;;;;;;;2.45;0.70;;;;;;;3.04;73.49;99983.41;5070988;28;20366;-68
2024/01/17 02:21:12;;;;;;;1.60;0.40;;;;;;;3.04;74.06;99988.56;5069289;28;20040;-69
2024/01/17 02:23:38;;;;;;;3.22;0.47;;;;;;;3.04;74.13;99976.50;5069625;28;20039;-68
2024/01/17 02:26:03;;;;;;;2.05;0.93;;;;;;;3.04;74.56;99970.53;5071946;28;20037;-69
2024/01/17 02:28:30;;;;;;;2.67;0.52;;;;;;;3.02;74.28;99978.38;5058099;28;20020;-68
2024/01/17 02:30:56;;;;;;;3.45;0.50;;;;;;;3.03;73.29;99974.03;5062671;28;20025;-68
2024/01/17 02:33:22;;;;;;;3.28;0.90;;;;;;;3.03;72.71;99974.03;5069123;28;20032;-68
2024/01/17 02:35:48;;;;;;;1.92;0.45;;;;;;;3.00;73.05;99970.75;5067237;28;20043;-68
2024/01/17 02:38:13;;;;;;;4.88;1.02;;;;;;;2.97;73.14;99955.53;5069467;28;20040;-68
2024/01/17 02:40:39;;;;;;;5.15;0.98;;;;;;;2.96;73.16;99955.63;5068351;28;20033;-68
2024/01/17 02:43:05;;;;;;;2.72;0.88;;;;;;;2.95;74.12;99941.94;5073629;28;20075;-68
2024/01/17 02:45:31;;;;;;;1.75;0.50;;;;;;;2.96;73.08;99935.88;5067035;28;20035;-68
2024/01/17 02:47:57;;;;;;;2.38;0.68;;;;;;;2.98;73.35;99928.84;5069998;28;20044;-69
2024/01/17 02:50:23;;;;;;;1.75;0.47;;;;;;;3.00;73.19;99927.00;5073072;28;20039;-68
2024/01/17 02:52:48;;;;;;;1.75;0.30;;;;;;;3.03;72.69;99923.38;5062042;28;20024;-68
2024/01/17 02:55:17;;;;;;;3.38;0.90;;;;;;;3.05;72.92;99921.53;5068165;28;20493;-68
2024/01/17 02:57:43;;;;;;;2.95;0.38;;;;;;;3.08;72.52;99928.22;5068764;28;20032;-68
2024/01/17 03:00:09;;;;;;;1.13;0.45;;;;;;;3.12;73.63;99927.06;5070003;28;20040;-68
2024/01/17 03:02:38;;;;;;;2.13;0.70;;;;;;;3.15;71.69;99932.00;5064705;28;20036;-68
2024/01/17 03:05:05;;;;;;;5.35;0.52;;;;;;;3.17;72.17;99925.81;5070171;28;20024;-68
2024/01/17 03:07:31;;;;;;;3.58;0.52;;;;;;;3.18;71.43;99927.44;5072489;28;20032;-68
2024/01/17 03:09:56;;;;;;;3.38;0.70;;;;;;;3.16;71.46;99928.47;5079352;28;20024;-68
2024/01/17 03:12:22;;;;;;;2.45;0.40;;;;;;;3.13;72.37;99928.69;5066987;28;20379;-69
2024/01/17 03:14:48;;;;;;;3.20;0.65;;;;;;;3.11;70.95;99925.41;5072070;28;20033;-68
2024/01/17 03:17:14;;;;;;;1.45;0.50;;;;;;;3.10;71.10;99918.63;5072353;28;20040;-68
2024/01/17 03:19:42;;;;;;;3.10;0.50;;;;;;;3.10;70.72;99918.63;5067695;28;20052;-68
2024/01/17 03:22:07;;;;;;;2.88;0.90;;;;;;;3.11;71.84;99909.97;5068606;28;20161;-68
2024/01/17 03:24:33;;;;;;;2.63;0.50;;;;;;;3.14;70.89;99904.59;5068157;28;20064;-68
2024/01/17 03:26:58;;;;;;;3.95;0.50;;;;;;;3.15;71.21;99903.66;5068937;28;20131;-68
2024/01/17 03:29:24;;;;;;;1.15;0.40;;;;;;;3.14;70.80;99900.28;5066517;28;20043;-68
2024/01/17 03:31:49;;;;;;;1.63;0.30;;;;;;;3.13;70.97;99897.81;5070539;28;20033;-68
2024/01/17 03:34:15;;;;;;;3.13;0.63;;;;;;;3.08;70.88;99893.00;5073021;28;20181;-68
2024/01/17 03:36:40;;;;;;;1.83;0.50;;;;;;;3.12;70.80;99891.03;5069729;28;20020;-69
2024/01/17 03:39:06;;;;;;;4.20;0.55;;;;;;;3.14;70.57;99887.41;5073344;28;20402;-68
2024/01/17 03:41:31;;;;;;;2.22;0.50;;;;;;;3.15;70.65;99872.78;5072643;28;20119;-68
2024/01/17 03:43:58;;;;;;;4.18;0.70;;;;;;;3.15;71.57;99865.88;5069137;28;20032;-68
2024/01/17 03:46:24;;;;;;;1.55;0.50;;;;;;;3.14;71.05;99855.69;5068560;28;20069;-68
2024/01/17 03:48:50;;;;;;;3.53;0.40;;;;;;;3.17;71.70;99858.03;5070772;28;20447;-68
2024/01/17 03:51:15;;;;;;;3.88;0.82;;;;;;;3.17;71.11;99856.28;5062551;28;20032;-68
2024/01/17 03:53:40;;;;;;;1.85;0.45;;;;;;;3.18;70.74;99849.41;5059232;28;20024;-69
2024/01/17 03:56:06;;;;;;;1.85;0.50;;;;;;;3.21;71.04;99849.16;5075568;28;20158;-68
2024/01/17 03:58:31;;;;;;;2.22;0.60;;;;;;;3.23;71.38;99847.31;5071982;28;20346;-68
2024/01/17 04:00:57;;;;;;;3.72;0.40;;;;;;;3.30;70.22;99857.03;5066536;28;20040;-69
2024/01/17 04:03:22;;;;;;;1.45;0.50;;;;;;;3.31;70.65;99862.97;5073960;28;20405;-68
2024/01/17 04:05:47;;;;;;;1.00;0.40;;;;;;;3.27;71.53;99864.16;5067407;28;20032;-69
2024/01/17 04:08:13;;;;;;;1.80;0.50;;;;;;;3.24;71.45;99869.53;5069826;28;20032;-68
2024/01/17 04:10:38;;;;;;;2.92;0.30;;;;;;;3.23;71.05;99868.72;5068505;28;20033;-68
2024/01/17 04:13:04;;;;;;;2.13;0.60;;;;;;;3.21;71.47;99873.16;5064452;28;20039;-68
2024/01/17 04:15:29;;;;;;;1.15;0.47;;;;;;;3.20;71.11;99875.84;5067783;28;20035;-68
2024/01/17 04:17:55;;;;;;;2.97;0.68;;;;;;;3.19;71.29;99877.59;5068365;28;20025;-68
2024/01/17 04:20:20;;;;;;;2.75;0.52;;;;;;;3.19;70.83;99887.06;5066157;28;20060;-68
2024/01/17 04:22:46;;;;;;;1.27;0.50;;;;;;;3.19;71.02;99887.06;5065831;28;20048;-68
2024/01/17 04:25:11;;;;;;;4.03;0.43;;;;;;;3.20;70.89;99884.38;5066251;28;20037;-68
2024/01/17 04:27:37;;;;;;;3.53;0.70;;;;;;;3.22;70.62;99886.84;5068146;28;20029;-69
2024/01/17 04:30:05;;;;;;;1.60;0.60;;;;;;;3.20;71.07;99886.16;5063265;28;20040;-69
2024/01/17 04:32:34;;;;;;;3.28;0.60;;;;;;;3.19;70.08;99881.94;5066274;28;20731;-68
2024/01/17 04:35:00;;;;;;;3.10;0.88;;;;;;;3.17;70.51;99878.63;5069823;28;20052;-69
2024/01/17 04:37:25;;;;;;;2.13;0.60;;;;;;;3.13;69.89;99872.91;5071684;28;20089;-68
2024/01/17 04:39:51;;;;;;;3.63;0.63;;;;;;;3.12;70.59;99870.44;5068231;28;20028;-69
2024/01/17 04:42:16;;;;;;;4.05;0.57;;;;;;;3.12;70.60;99871.25;5067371;28;20048;-69
2024/01/17 04:44:43;;;;;;;1.48;0.22;;;;;;;3.19;70.71;99871.63;5068954;28;20436;-69
2024/01/17 04:47:08;;;;;;;2.90;0.50;;;;;;;3.22;70.25;99866.25;5064662;28;20062;-69
2024/01/17 04:49:34;;;;;;;2.05;0.60;;;;;;;3.19;69.90;99844.13;5065017;28;20505;-69
2024/01/17 04:52:00;;;;;;;3.65;0.68;;;;;;;3.21;70.30;99846.59;5071517;28;20037;-68
2024/01/17 04:54:27;;;;;;;3.63;0.80;;;;;;;3.25;70.17;99853.16;5063452;28;20036;-69
2024/01/17 04:56:53;;;;;;;1.50;0.30;;;;;;;3.30;69.86;99856.22;5065262;28;20044;-68
2024/01/17 04:59:19;;;;;;;1.10;0.50;;;;;;;3.30;70.51;99853.66;5062716;28;20048;-68
2024/01/17 05:01:44;;;;;;;2.55;0.73;;;;;;;3.28;69.99;99860.66;5073586;28;20144;-69
2024/01/17 05:04:10;;;;;;;2.30;0.40;;;;;;;3.30;69.27;99857.03;5068206;28;20037;-68
2024/01/17 05:06:35;;;;;;;1.77;0.43;;;;;;;3.32;70.03;99868.03;5070558;28;20021;-69
2024/01/17 05:09:03;;;;;;;5.00;0.85;;;;;;;3.31;71.58;99852.69;5071742;28;20040;-68
2024/01/17 05:11:28;;;;;;;2.05;0.50;;;;;;;3.26;70.49;99847.09;5073248;28;20394;-69
2024/01/17 05:13:54;;;;;;;1.60;0.40;;;;;;;3.20;70.24;99850.94;5070187;28;20025;-69
2024/01/17 05:16:19;;;;;;;2.85;0.85;;;;;;;3.18;70.52;99847.63;5069933;28;20056;-69
2024/01/17 05:18:45;;;;;;;4.80;0.60;;;;;;;3.20;70.14;99852.69;5064418;28;20127;-69
2024/01/17 05:21:11;;;;;;;3.63;0.50;;;;;;;3.22;70.10;99846.47;5067079;28;20086;-68
2024/01/17 05:23:38;;;;;;;1.73;0.77;;;;;;;3.25;69.86;99843.69;5065076;28;20051;-69
2024/01/17 05:26:04;;;;;;;5.40;0.70;;;;;;;3.26;69.47;99839.34;5070022;28;20127;-69
2024/01/17 05:28:30;;;;;;;1.35;0.40;;;;;;;3.23;69.60;99827.53;5074296;28;20451;-68
2024/01/17 05:30:55;;;;;;;1.13;0.43;;;;;;;3.24;70.76;99828.34;5071292;28;20125;-68
2024/01/17 05:33:21;;;;;;;1.95;0.40;;;;;;;3.23;70.36;99817.22;5073565;28;20095;-68
2024/01/17 05:35:46;;;;;;;1.77;0.40;;;;;;;3.28;70.30;99827.19;5072580;28;20049;-69
2024/01/17 05:38:11;;;;;;;8.02;0.30;;;;;;;3.30;70.48;99828.72;5076720;28;20458;-69
2024/01/17 05:40:37;;;;;;;1.45;0.30;;;;;;;3.34;70.58;99821.56;5067554;28;20386;-69
2024/01/17 05:43:03;;;;;;;1.48;0.40;;;;;;;3.36;71.31;99811.97;5066301;28;20028;-69
2024/01/17 05:45:28;;;;;;;2.53;0.57;;;;;;;3.33;71.28;99802.72;5071194;28;20044;-69
2024/01/17 05:47:54;;;;;;;2.65;0.40;;;;;;;3.38;70.47;99804.94;5073288;28;20493;-69
2024/01/17 05:50:19;;;;;;;1.25;0.35;;;;;;;3.41;70.39;99814.19;5065081;28;20028;-69
2024/01/17 05:52:48;;;;;;;3.42;1.02;;;;;;;3.40;70.90;99812.56;5065317;28;20048;-69
2024/01/17 05:55:15;;;;;;;3.78;0.90;;;;;;;3.40;69.86;99823.69;5065757;28;20111;-69
2024/01/17 05:57:41;;;;;;;2.60;0.50;;;;;;;3.40;70.75;99831.41;5065048;28;20029;-69
2024/01/17 06:00:09;;;;;;;1.98;0.52;;;;;;;3.41;70.09;99819.34;5066353;28;20051;-69
2024/01/17 06:02:39;;;;;;;2.13;0.40;;;;;;;3.38;70.61;99814.44;5065158;28;20032;-69
2024/01/17 06:05:04;;;;;;;1.95;0.38;;;;;;;3.36;70.65;99817.13;5064330;28;20040;-69
2024/01/17 06:07:30;;;;;;;1.77;0.50;;;;;;;3.36;70.21;99817.13;5062224;28;20024;-69
2024/01/17 06:09:55;;;;;;;1.65;0.50;;;;;;;3.34;70.23;99822.38;5065671;28;20044;-68
2024/01/17 06:12:21;;;;;;;4.93;0.73;;;;;;;3.27;70.31;99816.06;5062524;28;20059;-68
2024/01/17 06:14:48;;;;;;;4.38;0.57;;;;;;;3.27;70.33;99820.41;5063986;28;20223;-68
2024/01/17 06:17:14;;;;;;;3.13;0.60;;;;;;;3.24;69.98;99813.72;5062531;28;20382;-69
2024/01/17 06:19:41;;;;;;;1.77;0.50;;;;;;;3.27;70.20;99822.97;5065065;28;20044;-68
2024/01/17 06:22:07;;;;;;;3.17;0.68;;;;;;;3.28;70.28;99822.88;5063751;28;20032;-69
2024/01/17 06:24:32;;;;;;;7.05;0.70;;;;;;;3.29;70.46;99819.34;5065198;28;20067;-69
2024/01/17 06:26:58;;;;;;;1.45;0.63;;;;;;;3.33;69.70;99819.91;5066768;28;20032;-69
2024/01/17 06:29:25;;;;;;;6.05;0.82;;;;;;;3.34;69.87;99813.84;5070763;28;20098;-69
2024/01/17 06:31:51;;;;;;;3.90;0.75;;;;;;;3.34;70.52;99817.22;5064449;28;20379;-69
2024/01/17 06:34:17;;;;;;;5.18;0.70;;;;;;;3.37;70.33;99812.78;5069085;28;20033;-69
2024/01/17 06:36:42;;;;;;;3.60;0.80;;;;;;;3.38;70.61;99815.25;5065851;28;20032;-68
2024/01/17 06:39:10;;;;;;;5.07;0.45;;;;;;;3.37;71.12;99821.34;5067327;28;20044;-69
2024/01/17 06:41:36;;;;;;;1.52;0.35;;;;;;;3.36;70.94;99822.28;5067875;28;20511;-69
2024/01/17 06:44:01;;;;;;;1.50;0.55;;;;;;;3.34;69.70;99824.13;5071242;28;20059;-69
2024/01/17 06:46:26;;;;;;;2.17;0.45;;;;;;;3.32;70.50;99836.31;5072201;28;20040;-69
2024/01/17 06:48:52;;;;;;;2.25;0.50;;;;;;;3.34;70.65;99837.00;5070803;28;20319;-69
2024/01/17 06:51:17;;;;;;;1.60;0.50;;;;;;;3.38;71.20;99843.56;5073218;28;20389;-68
2024/01/17 06:53:43;;;;;;;4.43;0.52;;;;;;;3.39;71.06;99847.78;5068629;28;20028;-68
2024/01/17 06:56:08;;;;;;;1.67;0.63;;;;;;;3.35;71.43;99843.81;5066613;28;20147;-69
2024/01/17 06:58:34;;;;;;;3.95;0.82;;;;;;;3.31;71.36;99853.50;5064408;28;20047;-69
2024/01/17 07:00:59;;;;;;;2.80;0.68;;;;;;;3.26;73.60;99852.22;5059741;28;20052;-69
2024/01/17 07:03:25;;;;;;;4.35;1.02;;;;;;;3.17;74.24;99852.91;5063568;28;20548;-69
2024/01/17 07:05:50;;;;;;;2.47;0.73;;;;;;;3.14;74.90;99863.41;5065163;28;20036;-69
2024/01/17 07:08:16;;;;;;;3.65;1.02;;;;;;;3.15;74.88;99865.88;5064444;28;20059;-69
2024/01/17 07:10:41;;;;;;;5.28;1.52;;;;;;;3.18;74.61;99868.22;5061562;28;20094;-68
2024/01/17 07:13:07;;;;;;;6.25;1.60;;;;;;;3.19;75.43;99866.47;5063730;28;20039;-68
2024/01/17 07:15:32;;;;;;;3.28;0.90;;;;;;;3.18;75.79;99865.66;5067625;28;20111;-69
2024/01/17 07:17:58;;;;;;;2.13;0.98;;;;;;;3.15;75.88;99855.59;5068990;28;20099;-69
2024/01/17 07:20:24;;;;;;;3.08;0.82;;;;;;;3.14;75.99;99863.41;5072371;28;20052;-69
2024/01/17 07:22:50;;;;;;;2.70;0.80;;;;;;;3.16;76.08;99862.38;5068870;28;20044;-68
2024/01/17 07:25:15;;;;;;;2.75;0.93;;;;;;;3.17;76.20;99860.63;5063993;28;20082;-69
2024/01/17 07:27:43;;;;;;;1.42;0.77;;;;;;;3.18;75.75;99864.84;5070599;28;20035;-69
2024/01/17 07:30:10;;;;;;;6.93;1.80;;;;;;;3.14;77.34;99859.09;5061358;28;20044;-69
2024/01/17 07:32:35;;;;;;;2.22;0.80;;;;;;;3.16;77.23;99867.53;5068993;28;20033;-69
2024/01/17 07:35:01;;;;;;;2.55;0.80;;;;;;;3.16;76.81;99862.38;5069941;28;20101;-69
2024/01/17 07:37:26;;;;;;;5.47;1.65;;;;;;;3.16;77.98;99861.56;5069991;28;20021;-69
2024/01/17 07:39:51;;;;;;;2.95;1.13;;;;;;;3.11;78.27;99863.63;5075844;28;20025;-68
2024/01/17 07:42:18;;;;;;;2.63;0.88;;;;;;;3.08;78.06;99869.00;5067927;28;20031;-69
2024/01/17 07:44:47;;;;;;;5.60;1.30;;;;;;;3.06;78.53;99863.16;5071860;28;20448;-68
2024/01/17 07:47:13;;;;;;;1.90;0.77;;;;;;;3.05;78.29;99856.38;5059219;28;20039;-68
2024/01/17 07:49:39;;;;;;;3.95;0.82;;;;;;;3.05;79.05;99853.78;5064775;28;20033;-69
2024/01/17 07:52:07;;;;;;;1.75;0.70;;;;;;;3.06;78.25;99858.00;5062472;28;20031;-69
2024/01/17 07:54:33;;;;;;;2.47;0.82;;;;;;;3.06;78.82;99865.72;5066997;28;20032;-69
2024/01/17 07:56:59;;;;;;;2.30;0.77;;;;;;;3.08;78.66;99871.59;5071139;28;20024;-70
2024/01/17 07:59:26;;;;;;;2.58;1.08;;;;;;;3.07;77.74;99873.34;5065487;28;20051;-71
2024/01/17 08:01:52;;;;;;;5.70;1.23;;;;;;;3.07;78.10;99864.78;5067265;28;20037;-70
2024/01/17 08:04:17;;;;;;;4.50;0.60;;;;;;;3.06;79.02;99861.41;5070216;28;20386;-70
2024/01/17 08:06:46;;;;;;;3.22;0.73;;;;;;;3.07;78.34;99851.94;5072210;28;20085;-70
2024/01/17 08:09:20;;;;;;;2.80;0.90;;;;;;;3.08;79.03;99854.38;5070364;28;20047;-68
2024/01/17 08:12:01;;;;;;;8.90;1.02;;;;;;;3.07;79.26;99852.75;5070346;28;20021;-68
2024/01/17 08:14:26;;;;;;;2.70;0.80;;;;;;;3.09;79.70;99850.88;5065142;28;20040;-68
2024/01/17 08:16:52;;;;;;;3.55;1.27;;;;;;;3.08;79.05;99845.84;5073710;28;20028;-68
2024/01/17 08:19:18;;;;;;;3.38;1.42;;;;;;;3.11;79.99;99853.34;5066007;28;20048;-68
2024/01/17 08:21:46;;;;;;;2.17;0.60;;;;;;;3.12;79.15;99855.00;5069816;28;20036;-68
2024/01/17 08:24:12;;;;;;;6.63;1.00;;;;;;;3.13;80.09;99854.06;5067973;28;20035;-68
2024/01/17 08:26:41;;;;;;;4.63;1.30;;;;;;;3.15;80.24;99863.31;5059010;28;21097;-68
2024/01/17 08:29:07;;;;;;;3.22;1.10;;;;;;;3.13;80.27;99854.06;5063108;28;20481;-68
2024/01/17 08:31:33;;;;;;;2.55;0.98;;;;;;;3.11;79.74;99845.63;5068880;28;20090;-69
2024/01/17 08:33:58;;;;;;;3.75;0.52;;;;;;;3.12;79.64;99842.13;5071579;28;20093;-68
2024/01/17 08:36:33;;;;;;;3.17;0.82;;;;;;;3.14;80.62;99847.97;5070463;28;20057;-68
2024/01/17 08:38:59;;;;;;;5.68;1.20;;;;;;;3.18;79.88;99844.25;5070044;28;20028;-70
2024/01/17 08:41:24;;;;;;;2.28;0.90;;;;;;;3.21;79.93;99841.44;5068882;28;20050;-68
2024/01/17 08:43:50;;;;;;;2.83;0.80;;;;;;;3.21;80.67;99836.28;5065172;28;20135;-68
2024/01/17 08:46:15;;;;;;;4.35;1.05;;;;;;;3.22;80.20;99836.19;5074333;28;20056;-68
2024/01/17 08:48:41;;;;;;;3.72;1.23;;;;;;;3.26;80.58;99839.34;5066250;28;20047;-68
2024/01/17 08:51:08;;;;;;;3.38;0.90;;;;;;;3.27;80.45;99828.13;5068774;28;20024;-69
2024/01/17 08:53:36;;;;;;;3.35;1.17;;;;;;;3.25;81.52;99827.41;5067102;28;20389;-69
2024/01/17 08:56:05;;;;;;;6.38;1.70;;;;;;;3.20;81.58;99819.22;5071746;28;20032;-69
2024/01/17 08:58:33;;;;;;;4.53;1.33;;;;;;;3.14;82.13;99823.06;5069783;28;20128;-68
2024/01/17 09:00:58;;;;;;;4.32;1.33;;;;;;;3.10;82.82;99826.78;5066734;28;20025;-68
2024/01/17 09:03:24;;;;;;;8.38;1.77;;;;;;;3.05;82.75;99831.44;5064254;28;20033;-68
2024/01/17 09:05:49;;;;;;;6.50;1.65;;;;;;;3.03;84.02;99840.22;5061134;28;20398;-68
2024/01/17 09:08:15;;;;;;;3.05;1.08;;;;;;;3.05;84.02;99843.50;5061303;28;20488;-69
2024/01/17 09:10:41;;;;;;;4.55;1.23;;;;;;;3.04;84.19;99836.72;5060933;28;20039;-69
2024/01/17 09:13:07;;;;;;;5.13;1.33;;;;;;;3.00;85.64;99842.06;5062706;28;20040;-68
2024/01/17 09:15:32;;;;;;;8.43;1.65;;;;;;;3.00;85.78;99836.94;5061325;28;20044;-69
2024/01/17 09:17:58;;;;;;;5.45;1.52;;;;;;;3.03;84.75;99838.47;5070558;28;20036;-68
2024/01/17 09:20:24;;;;;;;4.10;1.63;;;;;;;3.05;83.73;99834.03;5074488;28;20048;-68
2024/01/17 09:22:49;;;;;;;6.15;2.00;;;;;;;3.07;84.55;99836.47;5069664;28;20082;-68
2024/01/17 09:25:15;;;;;;;3.92;1.50;;;;;;;3.07;84.61;99836.47;5072552;28;20029;-69
2024/01/17 09:27:40;;;;;;;4.40;1.30;;;;;;;3.07;85.06;99823.63;5069187;28;20482;-68
2024/01/17 09:30:07;;;;;;;6.88;1.45;;;;;;;3.10;84.13;99826.78;5064663;28;20045;-68
2024/01/17 09:32:32;;;;;;;4.35;1.13;;;;;;;3.14;84.07;99814.50;5063927;28;20544;-69
2024/01/17 09:34:58;;;;;;;3.78;1.40;;;;;;;3.19;83.44;99809.84;5065674;28;20184;-68
2024/01/17 09:37:23;;;;;;;3.45;1.20;;;;;;;3.24;82.79;99803.44;5073349;28;20047;-70
2024/01/17 09:39:49;;;;;;;4.93;1.50;;;;;;;3.31;83.75;99814.06;5061371;28;20386;-68
2024/01/17 09:42:15;;;;;;;5.28;1.45;;;;;;;3.35;82.82;99800.03;5070446;28;20028;-69
2024/01/17 09:44:41;;;;;;;3.35;1.55;;;;;;;3.46;82.96;99801.81;5069717;28;20481;-68
2024/01/17 09:47:08;;;;;;;2.78;1.13;;;;;;;3.54;82.80;99802.06;5076726;28;20032;-69
2024/01/17 09:49:34;;;;;;;3.95;1.73;;;;;;;3.62;82.68;99800.53;5072731;28;20024;-68
2024/01/17 09:52:10;;;;;;;2.42;0.85;;;;;;;3.70;83.28;99794.81;5070517;28;20051;-68
2024/01/17 09:54:45;;;;;;;10.80;1.75;;;;;;;3.75;84.63;99784.16;5068664;28;20410;-70
2024/01/17 09:57:19;;;;;;;6.10;2.33;;;;;;;3.77;85.38;99779.72;5073282;28;20386;-68
2024/01/17 09:59:51;;;;;;;3.10;1.55;;;;;;;3.77;86.45;99766.81;5065720;28;20036;-70
2024/01/17 10:02:18;;;;;;;4.15;1.83;;;;;;;3.76;86.28;99757.44;5070649;28;20033;-68
2024/01/17 10:04:46;;;;;;;3.42;0.98;;;;;;;3.75;86.47;99751.47;5071767;28;20031;-70
2024/01/17 10:07:12;;;;;;;5.03;1.40;;;;;;;3.70;86.39;99738.13;5076368;28;20499;-68
2024/01/17 10:09:38;;;;;;;7.15;2.20;;;;;;;3.69;86.54;99733.91;5069076;28;20473;-68
2024/01/17 10:12:04;;;;;;;3.78;2.20;;;;;;;3.67;86.32;99734.03;5074034;28;20035;-69
2024/01/17 10:14:29;;;;;;;4.30;2.42;;;;;;;3.69;86.92;99740.81;5071174;28;20043;-68
2024/01/17 10:16:55;;;;;;;14.50;1.70;;;;;;;3.72;86.91;99730.28;5074155;28;20024;-69
2024/01/17 10:19:24;;;;;;;3.40;1.73;;;;;;;3.74;87.13;99726.66;5071324;28;20363;-69
2024/01/17 10:21:50;;;;;;;5.22;1.67;;;;;;;3.73;87.00;99725.00;5072637;28;20431;-68
2024/01/17 10:24:16;;;;;;;6.22;2.00;;;;;;;3.73;87.02;99721.63;5071878;28;20052;-68
2024/01/17 10:26:42;;;;;;;5.82;1.13;;;;;;;3.74;86.40;99724.06;5072314;28;20379;-69
2024/01/17 10:29:09;;;;;;;4.68;1.52;;;;;;;3.75;86.61;99715.41;5069768;28;20474;-68
2024/01/17 10:31:35;;;;;;;4.72;1.90;;;;;;;3.75;85.33;99709.44;5071059;28;20052;-69
2024/01/17 10:34:00;;;;;;;11.05;2.88;;;;;;;3.71;84.95;99710.59;5071373;28;20029;-69
2024/01/17 10:36:26;;;;;;;8.07;2.53;;;;;;;3.62;84.79;99692.34;5070535;28;20504;-69
2024/01/17 10:38:59;;;;;;;5.70;2.55;;;;;;;3.60;84.79;99696.78;5071077;28;20080;-69
2024/01/17 10:41:25;;;;;;;4.40;1.90;;;;;;;3.60;84.84;99685.69;5066981;28;20398;-69
2024/01/17 10:44:00;;;;;;;4.82;1.70;;;;;;;3.59;85.55;99684.03;5071621;28;20089;-68
2024/01/17 10:46:26;;;;;;;3.88;1.98;;;;;;;3.54;85.57;99668.94;5069524;28;20066;-69
2024/01/17 10:48:52;;;;;;;8.20;1.70;;;;;;;3.54;85.79;99666.34;5063580;28;20033;-69
2024/01/17 10:51:22;;;;;;;4.22;1.98;;;;;;;3.56;86.77;99659.34;5063971;28;20106;-69
2024/01/17 10:53:49;;;;;;;5.07;1.27;;;;;;;3.60;86.90;99663.31;5065419;28;20039;-68
2024/01/17 10:56:20;;;;;;;4.25;1.65;;;;;;;3.62;88.34;99658.84;5064438;28;20047;-69
2024/01/17 10:58:52;;;;;;;8.23;2.60;;;;;;;3.65;90.70;99655.22;5067737;28;20110;-69
2024/01/17 11:01:40;;;;;;;6.47;3.03;;;;;;;3.69;93.99;99648.06;5069204;28;20139;-69
2024/01/17 11:04:16;;;;;;;5.45;2.75;;;;;;;3.73;96.31;99641.75;5067730;28;20103;-69
2024/01/17 11:06:43;;;;;;;7.85;3.25;;;;;;;3.74;100.00;99636.47;5069158;28;20150;-69
2024/01/17 11:09:11;;;;;;;5.85;2.42;;;;;;;3.67;100.00;99636.13;5069874;28;20035;-70
2024/01/17 11:11:42;;;;;;;5.22;2.88;;;;;;;3.54;100.00;99632.88;5069804;28;20367;-68
2024/01/17 11:14:08;;;;;;;3.45;1.92;;;;;;;3.41;100.00;99632.19;5069629;28;20029;-70
2024/01/17 11:16:36;;;;;;;6.07;1.48;;;;;;;3.32;100.00;99632.91;5069202;28;20397;-70
2024/01/17 11:19:02;;;;;;;4.80;1.95;;;;;;;3.21;100.00;99628.59;5070078;28;20032;-70
2024/01/17 11:21:30;;;;;;;3.92;1.50;;;;;;;3.14;100.00;99624.03;5067659;28;20036;-71
2024/01/17 11:24:44;;;;;;;7.80;1.70;;;;;;;3.06;100.00;99622.03;5068331;28;20028;-72
2024/01/17 11:27:24;;;;;;;4.93;2.03;;;;;;;2.96;100.00;99629.63;5056771;28;20102;-71
2024/01/17 11:30:07;;;;;;;5.95;2.15;;;;;;;2.90;100.00;99635.25;5068786;28;20036;-71
2024/01/17 11:33:02;;;;;;;6.18;2.47;;;;;;;2.71;100.00;99637.59;5069258;28;20132;-72
2024/01/17 11:35:48;;;;;;;7.78;3.13;;;;;;;2.48;100.00;99625.59;5064784;28;20052;-72